Time;durP1;ratioP1;P1;durP2;ratioP2;P2;SDS_P1;SDS_P2;PMS_P1;PMS_P2;Temp;Humidity;BMP_temperature;BMP_pressure;BME280_temperature;BME280_humidity;BME280_pressure;Samples;Min_cycle;Max_cycle;Signal;HPM_P1;HPM_P2
2024/01/01 00:01:49;;;;;;;10.23;9.32;;;3.50;99.90;;;;;;5039902;28;20888;-76
2024/01/01 00:04:16;;;;;;;10.82;9.93;;;3.60;99.90;;;;;;5039402;28;20199;-75
2024/01/01 00:06:43;;;;;;;9.40;8.60;;;3.60;99.90;;;;;;5040993;28;20218;-77
2024/01/01 00:09:12;;;;;;;9.02;8.23;;;3.60;99.90;;;;;;5041583;28;20245;-76
2024/01/01 00:11:39;;;;;;;8.30;7.68;;;3.60;99.90;;;;;;5045214;28;20230;-75
2024/01/01 00:14:06;;;;;;;7.55;6.95;;;3.60;99.90;;;;;;5043202;28;20201;-75
2024/01/01 00:16:33;;;;;;;7.22;6.63;;;3.60;99.90;;;;;;5040218;28;20579;-75
2024/01/01 00:19:00;;;;;;;7.60;7.00;;;3.70;99.90;;;;;;5044720;28;20258;-75
2024/01/01 00:21:28;;;;;;;10.43;9.50;;;3.70;99.90;;;;;;5045051;28;20209;-75
2024/01/01 00:23:55;;;;;;;8.75;7.95;;;3.70;99.90;;;;;;5043079;28;20294;-74
2024/01/01 00:26:23;;;;;;;7.65;7.05;;;3.60;99.90;;;;;;5044372;28;20213;-75
2024/01/01 00:28:50;;;;;;;6.60;6.05;;;3.60;99.90;;;;;;5044360;28;20219;-75
2024/01/01 00:31:17;;;;;;;7.43;6.82;;;3.60;99.90;;;;;;5044579;28;20222;-74
2024/01/01 00:33:44;;;;;;;6.03;5.53;;;3.60;99.90;;;;;;5041008;28;20223;-75
2024/01/01 00:36:11;;;;;;;5.40;4.95;;;3.70;99.90;;;;;;5044433;28;20724;-75
2024/01/01 00:38:38;;;;;;;6.63;6.03;;;3.70;99.90;;;;;;5043914;28;20222;-75
2024/01/01 00:41:05;;;;;;;5.75;5.35;;;3.80;99.90;;;;;;5042453;28;20199;-75
2024/01/01 00:43:34;;;;;;;5.75;5.35;;;3.80;99.90;;;;;;5043480;28;20226;-75
2024/01/01 00:46:02;;;;;;;57.22;9.95;;;3.80;99.90;;;;;;5044465;28;20203;-74
2024/01/01 00:48:29;;;;;;;84.60;10.90;;;3.80;99.90;;;;;;5041767;28;20246;-75
2024/01/01 00:50:56;;;;;;;9.32;8.52;;;3.70;99.90;;;;;;5039632;28;20225;-74
2024/01/01 00:53:23;;;;;;;150.60;15.98;;;3.70;99.90;;;;;;5044221;28;20725;-75
2024/01/01 00:55:50;;;;;;;11.23;10.32;;;3.60;99.90;;;;;;5044245;28;20206;-75
2024/01/01 00:58:17;;;;;;;40.10;12.68;;;3.50;99.90;;;;;;5043672;28;20215;-75
2024/01/01 01:00:46;;;;;;;11.30;10.30;;;3.40;99.90;;;;;;5037683;28;20226;-75
2024/01/01 01:03:13;;;;;;;10.65;9.70;;;3.40;99.90;;;;;;5041551;28;20728;-76
2024/01/01 01:05:40;;;;;;;9.45;8.65;;;3.30;99.90;;;;;;5038855;28;20207;-75
2024/01/01 01:08:08;;;;;;;8.75;8.05;;;3.40;99.90;;;;;;5040588;28;20277;-75
2024/01/01 01:10:35;;;;;;;10.15;9.27;;;3.40;99.90;;;;;;5043178;28;20240;-76
2024/01/01 01:13:02;;;;;;;10.65;9.75;;;3.40;99.90;;;;;;5041324;28;20226;-74
2024/01/01 01:15:30;;;;;;;9.55;8.80;;;3.40;99.90;;;;;;5042701;28;20203;-75
2024/01/01 01:17:58;;;;;;;8.38;7.68;;;3.50;99.90;;;;;;5042328;28;20229;-74
2024/01/01 01:20:25;;;;;;;7.57;6.95;;;3.50;99.90;;;;;;5043592;28;20227;-75
2024/01/01 01:22:52;;;;;;;7.45;6.85;;;3.50;99.90;;;;;;5040654;28;20228;-74
2024/01/01 01:25:19;;;;;;;6.80;6.30;;;3.50;99.90;;;;;;5041454;28;20214;-75
2024/01/01 01:27:46;;;;;;;5.75;5.35;;;3.60;99.90;;;;;;5038298;28;20223;-75
2024/01/01 01:30:14;;;;;;;5.60;5.20;;;3.60;99.90;;;;;;5039434;28;20227;-74
2024/01/01 01:32:41;;;;;;;5.22;4.82;;;3.60;99.90;;;;;;5039480;28;20226;-75
2024/01/01 01:35:11;;;;;;;4.97;4.68;;;3.70;99.90;;;;;;5041780;28;20195;-76
2024/01/01 01:37:38;;;;;;;10.68;6.97;;;3.70;99.90;;;;;;5038692;28;20222;-76
2024/01/01 01:40:06;;;;;;;7.60;6.97;;;3.70;99.90;;;;;;5043496;28;20218;-75
2024/01/01 01:42:33;;;;;;;8.95;8.15;;;3.60;99.90;;;;;;5040619;28;21286;-75
2024/01/01 01:45:00;;;;;;;7.28;6.68;;;3.50;99.90;;;;;;5040744;28;20284;-75
2024/01/01 01:47:28;;;;;;;6.55;6.05;;;3.40;99.90;;;;;;5039700;28;21061;-74
2024/01/01 01:49:56;;;;;;;6.00;5.50;;;3.40;99.90;;;;;;5041997;28;20229;-75
2024/01/01 01:52:25;;;;;;;5.38;4.97;;;3.50;99.90;;;;;;5042900;28;20226;-76
2024/01/01 01:54:55;;;;;;;5.40;5.00;;;3.50;99.90;;;;;;5041303;28;20209;-76
2024/01/01 01:57:22;;;;;;;5.07;4.68;;;3.50;99.90;;;;;;5042089;28;20210;-76
2024/01/01 01:59:49;;;;;;;4.57;4.28;;;3.60;99.90;;;;;;5039592;28;20231;-75
2024/01/01 02:02:18;;;;;;;6.75;6.20;;;3.70;99.90;;;;;;5040030;28;20222;-75
2024/01/01 02:04:45;;;;;;;7.40;6.80;;;3.70;99.90;;;;;;5039212;28;20294;-75
2024/01/01 02:07:12;;;;;;;7.22;6.55;;;3.70;99.90;;;;;;5043415;28;20226;-74
2024/01/01 02:09:41;;;;;;;7.85;7.15;;;3.60;99.90;;;;;;5039251;28;20225;-76
2024/01/01 02:12:08;;;;;;;8.20;7.50;;;3.70;99.90;;;;;;5043034;28;20238;-76
2024/01/01 02:14:36;;;;;;;6.88;6.28;;;3.70;99.90;;;;;;5041011;28;20203;-75
2024/01/01 02:17:03;;;;;;;18.88;11.32;;;3.70;99.90;;;;;;5042679;28;20226;-76
2024/01/01 02:19:30;;;;;;;10.73;9.73;;;3.70;99.90;;;;;;5040797;28;20231;-76
2024/01/01 02:21:57;;;;;;;11.38;10.27;;;3.60;99.90;;;;;;5041398;28;20210;-74
2024/01/01 02:24:26;;;;;;;11.20;10.18;;;3.60;99.90;;;;;;5040995;28;20252;-76
2024/01/01 02:26:53;;;;;;;11.45;10.40;;;3.60;99.90;;;;;;5041264;28;20222;-75
2024/01/01 02:29:20;;;;;;;11.63;10.52;;;3.50;99.90;;;;;;5040868;28;20219;-75
2024/01/01 02:31:47;;;;;;;11.95;10.85;;;3.50;99.90;;;;;;5040369;28;20226;-75
2024/01/01 02:34:14;;;;;;;12.02;10.90;;;3.60;99.90;;;;;;5039210;28;20294;-75
2024/01/01 02:36:41;;;;;;;11.38;10.30;;;3.50;99.90;;;;;;5041644;28;20225;-75
2024/01/01 02:39:10;;;;;;;12.52;11.23;;;3.50;99.90;;;;;;5042007;28;20799;-75
2024/01/01 02:41:39;;;;;;;11.98;10.77;;;3.50;99.90;;;;;;5041467;28;20290;-76
2024/01/01 02:44:07;;;;;;;10.95;9.90;;;3.60;99.90;;;;;;5039280;28;20298;-75
2024/01/01 02:46:34;;;;;;;12.13;10.95;;;3.60;99.90;;;;;;5041007;28;20237;-76
2024/01/01 02:49:01;;;;;;;11.65;10.50;;;3.60;99.90;;;;;;5042062;28;20218;-75
2024/01/01 02:51:28;;;;;;;10.52;9.52;;;3.60;99.90;;;;;;5043728;28;20219;-75
2024/01/01 02:53:55;;;;;;;12.38;11.13;;;3.60;99.90;;;;;;5040801;28;20210;-75
2024/01/01 02:56:24;;;;;;;11.20;10.18;;;3.60;99.90;;;;;;5040870;28;20202;-76
2024/01/01 02:58:54;;;;;;;12.02;10.82;;;3.60;99.90;;;;;;5042429;28;20316;-75
2024/01/01 03:01:21;;;;;;;10.90;9.90;;;3.60;99.90;;;;;;5038842;28;20201;-76
2024/01/01 03:03:48;;;;;;;10.88;9.82;;;3.60;99.90;;;;;;5033822;28;20234;-75
2024/01/01 03:06:19;;;;;;;10.32;9.43;;;3.60;99.90;;;;;;5039791;28;20205;-76
2024/01/01 03:08:46;;;;;;;10.10;9.18;;;3.60;99.90;;;;;;5036191;28;20242;-75
2024/01/01 03:11:13;;;;;;;10.55;9.52;;;3.60;99.90;;;;;;5039958;28;20227;-76
2024/01/01 03:13:41;;;;;;;9.63;8.70;;;3.70;99.90;;;;;;5041048;28;20913;-76
2024/01/01 03:16:09;;;;;;;9.50;8.60;;;3.70;99.90;;;;;;5039941;28;20219;-74
2024/01/01 03:18:36;;;;;;;9.15;8.25;;;3.70;99.90;;;;;;5040407;28;20885;-75
2024/01/01 03:21:04;;;;;;;9.45;8.55;;;3.70;99.90;;;;;;5039075;28;20203;-76
2024/01/01 03:23:31;;;;;;;10.98;9.98;;;3.70;99.90;;;;;;5040467;28;20310;-76
2024/01/01 03:25:58;;;;;;;11.05;9.98;;;3.70;99.90;;;;;;5038414;28;20233;-75
2024/01/01 03:28:25;;;;;;;10.38;9.30;;;3.70;99.90;;;;;;5038754;28;20226;-76
2024/01/01 03:30:52;;;;;;;10.25;9.25;;;3.60;99.90;;;;;;5038307;28;20276;-75
2024/01/01 03:33:21;;;;;;;11.35;10.30;;;3.60;99.90;;;;;;5038317;28;20233;-75
2024/01/01 03:35:48;;;;;;;10.02;9.13;;;3.60;99.90;;;;;;5039245;28;20245;-76
2024/01/01 03:38:15;;;;;;;10.52;9.50;;;3.60;99.90;;;;;;5039407;28;20222;-75
2024/01/01 03:40:42;;;;;;;10.27;9.30;;;3.60;99.90;;;;;;5037344;28;20219;-75
2024/01/01 03:43:09;;;;;;;9.48;8.57;;;3.50;99.90;;;;;;5041386;28;20228;-76
2024/01/01 03:45:36;;;;;;;9.25;8.45;;;3.50;99.90;;;;;;5038087;28;20294;-76
2024/01/01 03:48:04;;;;;;;8.40;7.60;;;3.50;99.90;;;;;;5037719;28;20218;-75
2024/01/01 03:50:32;;;;;;;7.53;6.85;;;3.50;99.90;;;;;;5038017;28;20218;-76
2024/01/01 03:52:59;;;;;;;9.40;8.50;;;3.50;99.90;;;;;;5040468;28;20229;-75
2024/01/01 03:55:27;;;;;;;9.35;8.50;;;3.50;99.90;;;;;;5039003;28;20692;-77
2024/01/01 03:57:54;;;;;;;8.48;7.68;;;3.50;99.90;;;;;;5038597;28;20218;-75
2024/01/01 04:00:21;;;;;;;8.68;7.88;;;3.40;99.90;;;;;;5038407;28;20222;-75
2024/01/01 04:02:48;;;;;;;7.72;6.97;;;3.40;99.90;;;;;;5035522;28;20739;-75
2024/01/01 04:05:16;;;;;;;7.72;7.03;;;3.40;99.90;;;;;;5039089;28;20195;-75
2024/01/01 04:07:44;;;;;;;7.75;7.10;;;3.40;99.90;;;;;;5036154;28;20219;-76
2024/01/01 04:10:11;;;;;;;8.13;7.32;;;3.40;99.90;;;;;;5038424;28;20250;-79
2024/01/01 04:12:38;;;;;;;8.43;7.63;;;3.40;99.90;;;;;;5038395;28;20219;-76
2024/01/01 04:15:06;;;;;;;7.88;7.20;;;3.40;99.90;;;;;;5035583;28;20203;-76
2024/01/01 04:17:33;;;;;;;8.70;7.90;;;3.40;99.90;;;;;;5037768;28;20237;-76
2024/01/01 04:20:00;;;;;;;8.65;7.85;;;3.40;99.90;;;;;;5037651;28;20223;-76
2024/01/01 04:22:28;;;;;;;8.35;7.55;;;3.30;99.90;;;;;;5038465;28;20241;-76
2024/01/01 04:24:56;;;;;;;7.97;7.22;;;3.30;99.90;;;;;;5038801;28;20206;-75
2024/01/01 04:27:23;;;;;;;7.63;6.95;;;3.30;99.90;;;;;;5037684;28;20222;-75
2024/01/01 04:29:50;;;;;;;7.47;6.78;;;3.30;99.90;;;;;;5039752;28;20227;-76
2024/01/01 04:32:17;;;;;;;7.13;6.43;;;3.40;99.90;;;;;;5038620;28;20219;-75
2024/01/01 04:34:45;;;;;;;8.32;7.60;;;3.30;99.90;;;;;;5036160;28;20217;-76
2024/01/01 04:37:12;;;;;;;7.07;6.47;;;3.30;99.90;;;;;;5037782;28;20235;-76
2024/01/01 04:39:39;;;;;;;6.90;6.30;;;3.40;99.90;;;;;;5038315;28;20916;-75
2024/01/01 04:42:08;;;;;;;6.68;6.18;;;3.40;99.90;;;;;;5035507;28;20241;-74
2024/01/01 04:44:35;;;;;;;7.10;6.50;;;3.40;99.90;;;;;;5036568;28;20200;-76
2024/01/01 04:47:02;;;;;;;10.15;9.15;;;3.40;99.90;;;;;;5037461;28;20225;-76
2024/01/01 04:49:29;;;;;;;10.77;9.45;;;3.40;99.90;;;;;;5036748;28;20911;-75
2024/01/01 04:51:56;;;;;;;9.90;8.57;;;3.30;99.90;;;;;;5037095;28;20235;-75
2024/01/01 04:54:24;;;;;;;10.18;9.20;;;3.30;99.90;;;;;;5036766;28;20724;-76
2024/01/01 04:56:51;;;;;;;9.63;8.43;;;3.20;99.90;;;;;;5041791;28;20227;-76
2024/01/01 04:59:19;;;;;;;7.85;7.05;;;3.20;99.90;;;;;;5041351;28;20237;-75
2024/01/01 05:01:46;;;;;;;8.45;7.68;;;3.20;99.90;;;;;;5035674;28;20262;-76
2024/01/01 05:04:13;;;;;;;7.70;7.00;;;3.20;99.90;;;;;;5032755;28;20214;-76
2024/01/01 05:06:41;;;;;;;7.40;6.70;;;3.20;99.90;;;;;;5035187;28;20207;-76
2024/01/01 05:09:08;;;;;;;7.32;6.65;;;3.20;99.90;;;;;;5039620;28;20234;-76
2024/01/01 05:11:39;;;;;;;7.78;7.07;;;3.30;99.90;;;;;;5041672;28;20199;-74
2024/01/01 05:14:06;;;;;;;6.13;5.63;;;3.30;99.90;;;;;;5040087;28;20234;-76
2024/01/01 05:16:35;;;;;;;6.20;5.70;;;3.30;99.90;;;;;;5039654;28;20210;-75
2024/01/01 05:19:03;;;;;;;6.53;5.93;;;3.30;99.90;;;;;;5038911;28;20840;-76
2024/01/01 05:21:30;;;;;;;6.85;6.30;;;3.40;99.90;;;;;;5039905;28;20203;-76
2024/01/01 05:23:57;;;;;;;5.53;5.13;;;3.40;99.90;;;;;;5037775;28;20637;-75
2024/01/01 05:26:24;;;;;;;5.60;5.10;;;3.40;99.90;;;;;;5040149;28;20206;-76
2024/01/01 05:28:51;;;;;;;5.53;5.13;;;3.40;99.90;;;;;;5039957;28;20222;-75
2024/01/01 05:31:22;;;;;;;4.88;4.57;;;3.40;99.90;;;;;;5039121;28;20231;-75
2024/01/01 05:33:50;;;;;;;5.60;5.20;;;3.40;99.90;;;;;;5039901;28;20218;-76
2024/01/01 05:36:17;;;;;;;4.70;4.35;;;3.40;99.90;;;;;;5042088;28;20241;-75
2024/01/01 05:38:44;;;;;;;5.05;4.65;;;3.40;99.90;;;;;;5040583;28;20567;-76
2024/01/01 05:41:12;;;;;;;5.57;5.07;;;3.40;99.90;;;;;;5039061;28;20214;-75
2024/01/01 05:43:39;;;;;;;5.10;4.70;;;3.30;99.90;;;;;;5039191;28;20757;-75
2024/01/01 05:46:07;;;;;;;5.15;4.75;;;3.30;99.90;;;;;;5041200;28;20199;-75
2024/01/01 05:48:34;;;;;;;4.90;4.50;;;3.20;99.90;;;;;;5041498;28;20280;-75
2024/01/01 05:51:02;;;;;;;5.05;4.68;;;3.20;99.90;;;;;;5038809;28;20678;-75
2024/01/01 05:53:29;;;;;;;4.70;4.40;;;3.30;99.90;;;;;;5039983;28;20237;-75
2024/01/01 05:55:56;;;;;;;4.97;4.57;;;3.20;99.90;;;;;;5038297;28;20198;-75
2024/01/01 05:58:23;;;;;;;5.15;4.75;;;3.30;99.90;;;;;;5039083;28;20306;-76
2024/01/01 06:00:51;;;;;;;5.53;5.03;;;3.30;99.90;;;;;;5039769;28;20225;-75
2024/01/01 06:03:18;;;;;;;4.60;4.30;;;3.30;99.90;;;;;;5039493;28;20257;-76
2024/01/01 06:05:45;;;;;;;5.88;5.40;;;3.30;99.90;;;;;;5040941;28;20260;-75
2024/01/01 06:08:13;;;;;;;5.20;4.80;;;3.40;99.90;;;;;;5037794;28;20215;-76
2024/01/01 06:10:41;;;;;;;5.50;5.05;;;3.40;99.90;;;;;;5038210;28;20219;-76
2024/01/01 06:13:08;;;;;;;4.85;4.43;;;3.40;99.90;;;;;;5038999;28;20226;-75
2024/01/01 06:15:35;;;;;;;5.10;4.70;;;3.40;99.90;;;;;;5038993;28;20207;-75
2024/01/01 06:18:02;;;;;;;5.45;5.05;;;3.40;99.90;;;;;;5037453;28;20222;-75
2024/01/01 06:20:29;;;;;;;4.70;4.30;;;3.40;99.90;;;;;;5039198;28;20258;-74
2024/01/01 06:22:56;;;;;;;4.88;4.50;;;3.40;99.90;;;;;;5038792;28;20737;-75
2024/01/01 06:25:25;;;;;;;4.93;4.53;;;3.40;99.90;;;;;;5041361;28;20211;-75
2024/01/01 06:27:52;;;;;;;5.25;4.80;;;3.50;99.90;;;;;;5042569;28;20728;-75
2024/01/01 06:30:19;;;;;;;6.38;5.43;;;3.40;99.90;;;;;;5038650;28;20247;-76
2024/01/01 06:32:46;;;;;;;6.97;6.38;;;3.40;99.90;;;;;;5040632;28;20221;-75
2024/01/01 06:35:13;;;;;;;6.82;6.22;;;3.30;99.90;;;;;;5038227;28;20203;-77
2024/01/01 06:37:40;;;;;;;6.10;5.60;;;3.20;99.90;;;;;;5039159;28;20234;-75
2024/01/01 06:40:08;;;;;;;6.93;6.40;;;3.20;99.90;;;;;;5040383;28;20234;-75
2024/01/01 06:42:37;;;;;;;6.60;6.03;;;3.20;99.90;;;;;;5038367;28;20215;-75
2024/01/01 06:45:06;;;;;;;6.25;5.68;;;3.20;99.90;;;;;;5038653;28;20210;-76
2024/01/01 06:47:33;;;;;;;6.75;6.13;;;3.20;99.90;;;;;;5039502;28;20384;-75
2024/01/01 06:50:01;;;;;;;7.38;6.68;;;3.20;99.90;;;;;;5040767;28;20245;-75
2024/01/01 06:52:28;;;;;;;7.55;6.85;;;3.10;99.90;;;;;;5038831;28;20301;-76
2024/01/01 06:54:55;;;;;;;6.78;6.18;;;3.10;99.90;;;;;;5040617;28;20226;-75
2024/01/01 06:57:22;;;;;;;7.95;7.20;;;3.00;99.90;;;;;;5038280;28;20218;-76
2024/01/01 06:59:50;;;;;;;7.20;6.53;;;3.00;99.90;;;;;;5039850;28;20242;-75
2024/01/01 07:02:17;;;;;;;7.22;6.63;;;3.00;99.90;;;;;;5037479;28;20218;-75
2024/01/01 07:04:44;;;;;;;6.90;6.32;;;3.00;99.90;;;;;;5036148;28;20209;-77
2024/01/01 07:07:11;;;;;;;6.53;6.00;;;3.00;99.90;;;;;;5039030;28;20242;-75
2024/01/01 07:09:39;;;;;;;6.13;5.63;;;3.00;99.90;;;;;;5041367;28;20713;-76
2024/01/01 07:12:19;;;;;;;5.90;5.40;;;3.00;99.90;;;;;;5037913;28;20223;-75
2024/01/01 07:14:46;;;;;;;5.68;5.20;;;3.00;99.90;;;;;;5039146;28;20195;-75
2024/01/01 07:17:15;;;;;;;5.35;4.95;;;3.10;99.90;;;;;;5039794;28;20227;-76
2024/01/01 07:19:42;;;;;;;5.57;5.18;;;3.10;99.90;;;;;;5037264;28;20771;-77
2024/01/01 07:22:10;;;;;;;5.78;5.28;;;3.10;99.90;;;;;;5039713;28;20226;-76
2024/01/01 07:24:37;;;;;;;6.50;5.95;;;3.10;99.90;;;;;;5035592;28;20200;-76
2024/01/01 07:27:04;;;;;;;6.82;6.22;;;3.10;99.90;;;;;;5040231;28;20249;-76
2024/01/01 07:29:32;;;;;;;7.43;6.75;;;3.10;99.90;;;;;;5038773;28;20215;-76
2024/01/01 07:31:59;;;;;;;6.85;6.25;;;3.10;99.90;;;;;;5042287;28;20219;-75
2024/01/01 07:34:27;;;;;;;6.72;6.13;;;3.10;99.90;;;;;;5036983;28;20220;-76
2024/01/01 07:36:57;;;;;;;6.68;6.03;;;3.20;99.90;;;;;;5038335;28;20230;-75
2024/01/01 07:39:25;;;;;;;6.78;6.20;;;3.30;99.90;;;;;;5038979;28;20234;-76
2024/01/01 07:41:52;;;;;;;5.95;5.45;;;3.30;99.90;;;;;;5035690;28;20635;-76
2024/01/01 07:44:20;;;;;;;6.30;5.80;;;3.30;99.90;;;;;;5038003;28;20647;-76
2024/01/01 07:46:49;;;;;;;6.75;6.15;;;3.40;99.90;;;;;;5040548;28;20223;-75
2024/01/01 07:49:16;;;;;;;6.25;5.75;;;3.40;99.90;;;;;;5038664;28;20652;-75
2024/01/01 07:51:45;;;;;;;6.20;5.70;;;3.40;99.90;;;;;;5038812;28;20207;-76
2024/01/01 07:54:12;;;;;;;6.60;6.00;;;3.50;99.90;;;;;;5038861;28;20790;-76
2024/01/01 07:56:43;;;;;;;6.53;6.00;;;3.50;99.90;;;;;;5040364;28;20474;-75
2024/01/01 07:59:11;;;;;;;6.05;5.55;;;3.50;99.90;;;;;;5036909;28;20684;-75
2024/01/01 08:01:40;;;;;;;7.20;6.53;;;3.60;99.90;;;;;;5035552;28;20700;-75
2024/01/01 08:04:07;;;;;;;6.57;5.97;;;3.60;99.90;;;;;;5039518;28;20282;-75
2024/01/01 08:06:34;;;;;;;7.70;7.00;;;3.60;99.90;;;;;;5040672;28;20293;-75
2024/01/01 08:09:03;;;;;;;8.07;7.28;;;3.70;99.90;;;;;;5038383;28;20696;-75
2024/01/01 08:11:30;;;;;;;7.03;6.43;;;3.70;99.90;;;;;;5037498;28;20214;-75
2024/01/01 08:13:57;;;;;;;7.55;6.85;;;3.70;99.90;;;;;;5036743;28;20215;-75
2024/01/01 08:16:25;;;;;;;7.82;7.13;;;3.80;99.90;;;;;;5037889;28;20199;-75
2024/01/01 08:18:52;;;;;;;8.27;7.47;;;3.80;99.90;;;;;;5039435;28;20237;-76
2024/01/01 08:21:20;;;;;;;6.97;6.35;;;3.90;99.90;;;;;;5037853;28;20218;-75
2024/01/01 08:23:48;;;;;;;6.65;6.05;;;4.00;99.90;;;;;;5036769;28;20243;-75
2024/01/01 08:26:17;;;;;;;8.43;7.00;;;4.10;99.90;;;;;;5038033;28;20214;-75
2024/01/01 08:28:51;;;;;;;6.68;6.07;;;4.20;99.90;;;;;;5038805;28;20340;-75
2024/01/01 08:31:18;;;;;;;7.13;6.47;;;4.20;99.90;;;;;;5038940;28;21132;-77
2024/01/01 08:33:45;;;;;;;6.53;6.03;;;4.30;99.90;;;;;;5041891;28;20219;-74
2024/01/01 08:36:12;;;;;;;6.03;5.53;;;4.40;99.90;;;;;;5041265;28;20198;-76
2024/01/01 08:38:39;;;;;;;6.45;5.95;;;4.40;99.90;;;;;;5041528;28;20229;-76
2024/01/01 08:41:06;;;;;;;6.45;5.85;;;4.50;99.90;;;;;;5039864;28;20206;-77
2024/01/01 08:43:35;;;;;;;7.60;6.90;;;4.60;99.90;;;;;;5035926;28;20238;-75
2024/01/01 08:46:04;;;;;;;7.68;6.97;;;4.50;99.90;;;;;;5039461;28;20209;-76
2024/01/01 08:48:31;;;;;;;7.50;6.78;;;4.50;99.90;;;;;;5043462;28;20818;-75
2024/01/01 08:50:58;;;;;;;8.75;7.95;;;4.60;99.90;;;;;;5042720;28;20203;-76
2024/01/01 08:53:25;;;;;;;8.55;7.60;;;4.60;99.90;;;;;;5040378;28;20222;-74
2024/01/01 08:55:52;;;;;;;7.93;7.32;;;4.70;99.90;;;;;;5040112;28;20765;-76
2024/01/01 08:58:19;;;;;;;8.23;7.43;;;4.70;99.90;;;;;;5041938;28;20304;-76
2024/01/01 09:00:48;;;;;;;7.75;7.05;;;4.80;99.90;;;;;;5038073;28;20237;-75
2024/01/01 09:03:15;;;;;;;8.23;7.47;;;4.90;99.90;;;;;;5038208;28;20214;-76
2024/01/01 09:05:43;;;;;;;8.57;7.78;;;4.90;99.90;;;;;;5041069;28;20740;-76
2024/01/01 09:08:10;;;;;;;10.30;9.40;;;5.10;99.90;;;;;;5040491;28;20232;-75
2024/01/01 09:10:37;;;;;;;9.88;8.90;;;5.10;99.90;;;;;;5039719;28;20218;-75
2024/01/01 09:13:04;;;;;;;9.60;8.70;;;5.10;99.90;;;;;;5041630;28;20227;-75
2024/01/01 09:15:31;;;;;;;9.13;8.32;;;5.20;99.90;;;;;;5039237;28;20211;-75
2024/01/01 09:18:00;;;;;;;10.20;9.13;;;5.20;99.90;;;;;;5040524;28;20223;-75
2024/01/01 09:20:27;;;;;;;9.40;8.52;;;5.30;99.90;;;;;;5041845;28;20295;-75
2024/01/01 09:22:56;;;;;;;9.57;8.68;;;5.40;99.90;;;;;;5040437;28;20229;-75
2024/01/01 09:25:23;;;;;;;10.77;9.77;;;5.60;99.90;;;;;;5041101;28;20198;-75
2024/01/01 09:27:50;;;;;;;12.07;10.88;;;5.90;99.90;;;;;;5043650;28;20226;-75
2024/01/01 09:30:18;;;;;;;13.02;11.57;;;6.20;99.90;;;;;;5040806;28;20230;-76
2024/01/01 09:32:45;;;;;;;12.38;10.82;;;6.40;99.90;;;;;;5042172;28;20273;-75
2024/01/01 09:35:13;;;;;;;10.35;9.23;;;6.60;99.90;;;;;;5042086;28;20202;-76
2024/01/01 09:37:41;;;;;;;9.75;8.85;;;6.70;99.90;;;;;;5042017;28;20227;-76
2024/01/01 09:40:10;;;;;;;8.63;7.82;;;7.10;99.90;;;;;;5040586;28;20654;-75
2024/01/01 09:42:37;;;;;;;8.80;8.00;;;8.00;99.90;;;;;;5040185;28;20218;-76
2024/01/01 09:45:05;;;;;;;9.32;8.38;;;9.00;99.90;;;;;;5041443;28;20202;-76
2024/01/01 09:47:32;;;;;;;9.00;8.10;;;10.10;99.90;;;;;;5040250;28;20233;-76
2024/01/01 09:49:59;;;;;;;9.10;8.25;;;11.00;99.90;;;;;;5041699;28;20326;-75
2024/01/01 09:52:28;;;;;;;9.32;8.50;;;11.30;99.90;;;;;;5039739;28;20234;-75
2024/01/01 09:54:55;;;;;;;9.15;8.25;;;11.20;99.90;;;;;;5040459;28;20225;-77
2024/01/01 09:57:22;;;;;;;9.02;8.18;;;10.90;99.90;;;;;;5040652;28;20234;-75
2024/01/01 09:59:49;;;;;;;11.73;10.20;;;10.40;99.90;;;;;;5042490;28;20226;-75
2024/01/01 10:02:16;;;;;;;11.15;10.05;;;10.00;99.90;;;;;;5035317;28;21874;-76
2024/01/01 10:04:43;;;;;;;12.13;11.00;;;9.80;99.90;;;;;;5041667;28;20203;-74
2024/01/01 10:07:10;;;;;;;11.65;10.55;;;9.30;99.90;;;;;;5042674;28;20472;-75
2024/01/01 10:09:48;;;;;;;11.95;10.75;;;8.80;99.90;;;;;;5041560;28;20227;-76
2024/01/01 10:12:22;;;;;;;10.55;9.55;;;8.60;99.90;;;;;;5039285;28;20723;-75
2024/01/01 10:14:50;;;;;;;9.90;8.90;;;8.30;99.90;;;;;;5043541;28;20226;-75
2024/01/01 10:17:19;;;;;;;10.30;9.13;;;8.20;99.90;;;;;;5043438;28;20215;-76
2024/01/01 10:19:51;;;;;;;9.43;8.52;;;8.00;99.90;;;;;;5043584;28;20248;-75
2024/01/01 10:22:19;;;;;;;9.73;8.77;;;7.90;99.90;;;;;;5041538;28;20214;-75
2024/01/01 10:24:48;;;;;;;9.57;8.68;;;7.90;99.90;;;;;;5044700;28;20249;-76
2024/01/01 10:27:18;;;;;;;8.77;7.93;;;7.80;99.90;;;;;;5042425;28;20215;-77
2024/01/01 10:29:47;;;;;;;9.60;8.70;;;7.80;99.90;;;;;;5042390;28;20239;-77
2024/01/01 10:32:17;;;;;;;10.07;9.18;;;7.80;99.90;;;;;;5040733;28;20333;-76
2024/01/01 10:34:46;;;;;;;9.32;8.43;;;8.00;99.90;;;;;;5043133;28;20835;-75
2024/01/01 10:37:14;;;;;;;9.68;8.65;;;8.00;99.90;;;;;;5041954;28;20223;-78
2024/01/01 10:39:42;;;;;;;9.52;8.60;;;7.90;99.90;;;;;;5045290;28;20249;-75
2024/01/01 10:42:11;;;;;;;9.52;8.63;;;7.90;99.90;;;;;;5042951;28;20310;-74
2024/01/01 10:44:40;;;;;;;9.18;8.38;;;7.90;99.90;;;;;;5044011;28;20207;-76
2024/01/01 10:47:10;;;;;;;9.80;8.90;;;7.90;99.90;;;;;;5042808;28;20373;-76
2024/01/01 10:49:40;;;;;;;9.77;8.80;;;7.90;99.90;;;;;;5042697;28;20226;-75
2024/01/01 10:52:23;;;;;;;10.35;9.35;;;8.10;99.90;;;;;;5042568;28;20269;-75
2024/01/01 10:55:24;;;;;;;9.70;8.80;;;8.00;99.90;;;;;;5045482;28;20210;-76
2024/01/01 10:58:16;;;;;;;10.75;9.65;;;8.00;99.90;;;;;;5041832;28;20303;-76
2024/01/01 11:00:51;;;;;;;10.25;9.35;;;8.10;99.90;;;;;;5040093;28;20218;-75
2024/01/01 11:03:19;;;;;;;11.13;10.13;;;8.30;99.90;;;;;;5043520;28;20222;-76
2024/01/01 11:05:49;;;;;;;10.48;9.48;;;8.30;99.90;;;;;;5044271;28;20202;-76
2024/01/01 11:08:26;;;;;;;11.85;10.65;;;8.20;99.90;;;;;;5044798;28;20222;-76
2024/01/01 11:10:55;;;;;;;11.65;10.43;;;8.20;99.90;;;;;;5040434;28;20355;-77
2024/01/01 11:13:56;;;;;;;11.27;10.18;;;8.10;99.90;;;;;;5041645;28;20237;-76
2024/01/01 11:16:24;;;;;;;10.63;9.55;;;8.00;99.90;;;;;;5044373;28;20676;-77
2024/01/01 11:18:52;;;;;;;11.35;10.25;;;7.90;99.90;;;;;;5042607;28;20222;-76
2024/01/01 11:21:32;;;;;;;11.75;10.65;;;7.80;99.90;;;;;;5044368;28;20207;-76
2024/01/01 11:24:01;;;;;;;11.52;10.43;;;8.00;99.90;;;;;;5047595;28;20238;-75
2024/01/01 11:26:35;;;;;;;11.57;10.43;;;8.20;99.90;;;;;;5039268;28;20206;-77
2024/01/01 11:29:06;;;;;;;11.55;10.38;;;8.40;99.90;;;;;;5043526;28;20305;-77
2024/01/01 11:31:34;;;;;;;11.30;10.20;;;8.60;99.90;;;;;;5040440;28;20207;-76
2024/01/01 11:34:06;;;;;;;11.40;10.30;;;8.80;99.90;;;;;;5042074;28;20322;-77
2024/01/01 11:36:34;;;;;;;11.73;10.57;;;8.70;99.90;;;;;;5041995;28;20210;-75
2024/01/01 11:39:02;;;;;;;11.13;10.05;;;8.70;99.90;;;;;;5042316;28;20226;-75
2024/01/01 11:41:32;;;;;;;11.27;10.25;;;8.60;99.90;;;;;;5041567;28;20209;-77
2024/01/01 11:44:11;;;;;;;10.18;9.25;;;8.50;99.90;;;;;;5041722;28;20796;-75
2024/01/01 11:46:39;;;;;;;8.52;7.72;;;8.50;99.90;;;;;;5042670;28;20203;-76
2024/01/01 11:49:07;;;;;;;9.05;8.15;;;8.70;99.90;;;;;;5042345;28;20234;-76
2024/01/01 11:51:49;;;;;;;10.02;9.02;;;9.00;99.90;;;;;;5038658;28;20202;-77
2024/01/01 11:54:16;;;;;;;10.32;9.20;;;9.10;99.90;;;;;;5040632;28;20242;-75
2024/01/01 11:56:45;;;;;;;9.02;8.13;;;9.20;99.90;;;;;;5042177;28;20265;-76
2024/01/01 11:59:13;;;;;;;9.70;8.80;;;9.10;99.90;;;;;;5041144;28;20258;-75
2024/01/01 12:01:42;;;;;;;9.63;8.70;;;9.10;99.90;;;;;;5044280;28;20620;-77
2024/01/01 12:04:10;;;;;;;8.77;7.88;;;9.20;99.90;;;;;;5042410;28;20219;-76
2024/01/01 12:06:38;;;;;;;9.02;8.23;;;9.20;99.90;;;;;;5048233;28;20884;-75
2024/01/01 12:09:10;;;;;;;8.63;7.82;;;9.20;99.90;;;;;;5048821;28;20229;-76
2024/01/01 12:11:38;;;;;;;8.98;7.97;;;9.10;99.90;;;;;;5047892;28;20268;-76
2024/01/01 12:14:05;;;;;;;8.25;7.53;;;9.00;99.90;;;;;;5047769;28;20309;-76
2024/01/01 12:16:34;;;;;;;8.30;7.47;;;8.90;99.90;;;;;;5051705;28;20311;-76
2024/01/01 12:19:02;;;;;;;8.10;7.40;;;8.90;99.90;;;;;;5044221;28;20233;-75
2024/01/01 12:21:40;;;;;;;8.43;7.63;;;8.90;99.90;;;;;;5052405;28;20203;-77
2024/01/01 12:24:09;;;;;;;8.65;7.82;;;8.90;99.90;;;;;;5046813;28;20227;-76
2024/01/01 12:26:36;;;;;;;8.60;7.80;;;8.90;99.90;;;;;;5049383;28;20207;-76
2024/01/01 12:29:11;;;;;;;10.27;9.25;;;8.80;99.90;;;;;;5046346;28;20226;-76
2024/01/01 12:31:40;;;;;;;10.15;9.25;;;8.80;99.90;;;;;;5049232;28;20218;-76
2024/01/01 12:34:08;;;;;;;9.40;8.40;;;8.70;99.90;;;;;;5048040;28;20222;-76
2024/01/01 12:36:36;;;;;;;9.32;8.43;;;8.60;99.90;;;;;;5047318;28;20290;-75
2024/01/01 12:39:03;;;;;;;9.93;8.85;;;8.50;99.90;;;;;;5048922;28;20241;-77
2024/01/01 12:41:30;;;;;;;10.00;9.07;;;8.60;99.90;;;;;;5049351;28;20252;-75
2024/01/01 12:43:59;;;;;;;10.48;9.38;;;8.50;99.90;;;;;;5047643;28;20222;-77
2024/01/01 12:46:26;;;;;;;9.63;8.73;;;8.50;99.90;;;;;;5050423;28;20216;-77
2024/01/01 12:48:54;;;;;;;9.82;8.82;;;8.30;99.90;;;;;;5042873;28;20262;-76
2024/01/01 12:51:23;;;;;;;10.10;9.10;;;8.30;99.90;;;;;;5038972;28;20202;-78
2024/01/01 12:53:52;;;;;;;9.98;8.98;;;8.40;99.90;;;;;;5041720;28;20238;-77
2024/01/01 12:56:19;;;;;;;9.88;8.95;;;8.60;99.90;;;;;;5040793;28;20204;-75
2024/01/01 12:58:46;;;;;;;9.25;8.35;;;8.70;99.90;;;;;;5042155;28;20229;-76